createdAt,value
2022-12-08T00:01:09.540Z,41.00
2022-12-08T00:02:13.955Z,40.42
2022-12-08T00:03:16.804Z,36.58
2022-12-08T00:04:19.150Z,40.08
2022-12-08T00:05:40.084Z,39.05
2022-12-08T00:07:02.500Z,35.10
2022-12-08T00:08:23.861Z,34.78
2022-12-08T00:09:40.127Z,35.13
2022-12-08T00:10:49.934Z,33.38
2022-12-08T00:12:05.170Z,38.20
2022-12-08T00:13:07.372Z,34.58
2022-12-08T00:14:12.173Z,34.88
2022-12-08T00:15:14.532Z,38.03
2022-12-08T00:16:16.816Z,36.50
2022-12-08T00:17:19.556Z,34.97
2022-12-08T00:18:22.067Z,37.35
2022-12-08T00:19:25.328Z,41.88
2022-12-08T00:20:27.644Z,38.00
2022-12-08T00:21:31.271Z,34.97
2022-12-08T00:22:33.589Z,34.60
2022-12-08T00:23:36.004Z,37.70
2022-12-08T00:24:40.018Z,36.33
2022-12-08T00:25:42.366Z,38.40
2022-12-08T00:26:44.932Z,36.13
2022-12-08T00:27:47.699Z,35.50
2022-12-08T00:28:50.821Z,37.90
2022-12-08T00:29:53.527Z,39.17
2022-12-08T00:30:55.879Z,43.03
2022-12-08T00:31:58.350Z,38.60
2022-12-08T00:33:00.666Z,42.97
2022-12-08T00:34:03.971Z,35.15
2022-12-08T00:35:06.812Z,39.08
2022-12-08T00:36:11.971Z,43.78
2022-12-08T00:37:14.547Z,43.55
2022-12-08T00:38:17.037Z,42.55
2022-12-08T00:39:19.788Z,42.83
2022-12-08T00:40:22.171Z,43.47
2022-12-08T00:41:45.349Z,48.22
2022-12-08T00:42:47.993Z,47.63
2022-12-08T00:43:50.156Z,46.33
2022-12-08T00:44:52.540Z,46.42
2022-12-08T00:45:54.908Z,48.38
2022-12-08T00:46:57.377Z,44.03
2022-12-08T00:47:59.868Z,51.95
2022-12-08T00:49:03.019Z,48.78
2022-12-08T00:50:07.362Z,50.50
2022-12-08T00:52:13.144Z,46.65
2022-12-08T00:53:15.613Z,50.15
2022-12-08T00:54:18.479Z,51.10
2022-12-08T00:55:20.907Z,47.95
2022-12-08T00:56:23.476Z,53.55
2022-12-08T00:57:25.896Z,47.35
2022-12-08T00:58:28.190Z,47.60
2022-12-08T00:59:30.666Z,47.35
2022-12-08T01:00:33.011Z,45.50
2022-12-08T01:01:36.135Z,50.22
2022-12-08T01:02:38.608Z,47.55
2022-12-08T01:03:42.288Z,50.50
2022-12-08T01:04:44.934Z,43.92
2022-12-08T01:05:47.239Z,48.67
2022-12-08T01:06:49.802Z,49.70
2022-12-08T01:07:52.255Z,47.50
2022-12-08T01:08:55.112Z,46.10
2022-12-08T01:09:58.293Z,44.60
2022-12-08T01:11:05.618Z,44.92
2022-12-08T01:12:08.440Z,41.13
2022-12-08T01:13:13.657Z,40.03
2022-12-08T01:14:16.502Z,44.22
2022-12-08T01:15:18.839Z,46.67
2022-12-08T01:16:23.396Z,40.85
2022-12-08T01:17:28.046Z,39.90
2022-12-08T01:18:30.751Z,42.72
2022-12-08T01:19:33.199Z,45.63
2022-12-08T01:20:35.615Z,39.25
2022-12-08T01:21:38.179Z,44.10
2022-12-08T01:22:40.599Z,34.50
2022-12-08T01:23:43.077Z,39.13
2022-12-08T01:24:45.567Z,37.20
2022-12-08T01:25:48.032Z,41.42
2022-12-08T01:26:51.488Z,39.15
2022-12-08T01:27:53.986Z,42.80
2022-12-08T01:28:56.463Z,39.20
2022-12-08T01:29:59.631Z,39.25
2022-12-08T01:31:02.785Z,37.03
2022-12-08T01:32:05.463Z,39.83
2022-12-08T01:33:07.831Z,38.15
2022-12-08T01:34:11.555Z,42.15
2022-12-08T01:35:14.410Z,40.40
2022-12-08T01:36:23.151Z,43.53
2022-12-08T01:37:25.966Z,42.08
2022-12-08T01:38:28.187Z,40.97
2022-12-08T01:39:30.862Z,44.30
2022-12-08T01:40:33.264Z,37.05
2022-12-08T01:41:37.876Z,39.13
2022-12-08T01:42:40.183Z,39.45
2022-12-08T01:43:57.490Z,40.78
2022-12-08T01:45:03.163Z,37.00
2022-12-08T01:46:05.946Z,43.75
2022-12-08T01:47:08.963Z,38.50
2022-12-08T01:48:18.726Z,39.33
2022-12-08T01:49:31.087Z,44.40
2022-12-08T01:50:34.333Z,43.20
2022-12-08T01:52:01.054Z,41.35
2022-12-08T01:53:14.792Z,36.58
2022-12-08T01:54:17.784Z,44.33
2022-12-08T01:55:23.158Z,43.17
2022-12-08T01:56:36.519Z,38.35
2022-12-08T01:57:48.927Z,36.50
2022-12-08T01:58:54.366Z,38.55
2022-12-08T02:00:04.456Z,38.25
2022-12-08T02:01:10.928Z,39.35
2022-12-08T02:02:13.402Z,42.38
2022-12-08T02:03:28.874Z,44.03
2022-12-08T02:04:31.185Z,36.65
2022-12-08T02:05:41.037Z,44.92
2022-12-08T02:06:44.989Z,44.33
2022-12-08T02:07:48.821Z,40.65
2022-12-08T02:08:52.375Z,45.38
2022-12-08T02:09:55.523Z,49.28
2022-12-08T02:10:57.944Z,51.85
2022-12-08T02:12:00.946Z,53.13
2022-12-08T02:13:04.892Z,51.80
2022-12-08T02:14:11.618Z,49.05
2022-12-08T02:15:15.173Z,46.78
2022-12-08T02:16:39.044Z,51.97
2022-12-08T02:18:16.238Z,48.55
2022-12-08T02:19:36.569Z,46.50
2022-12-08T02:20:39.030Z,49.03
2022-12-08T02:21:45.231Z,42.42
2022-12-08T02:22:59.665Z,42.55
2022-12-08T02:24:09.905Z,43.22
2022-12-08T02:25:38.406Z,44.15
2022-12-08T02:27:20.306Z,47.90
2022-12-08T02:29:00.488Z,48.55
2022-12-08T02:30:15.985Z,48.65
2022-12-08T02:31:45.665Z,42.15
2022-12-08T02:34:22.939Z,54.30
2022-12-08T02:35:56.437Z,42.85
2022-12-08T02:37:09.746Z,47.10
2022-12-08T02:38:51.042Z,43.85
2022-12-08T02:40:33.894Z,40.25
2022-12-08T02:42:04.560Z,38.95
2022-12-08T02:43:16.785Z,39.75
2022-12-08T02:44:37.606Z,45.13
2022-12-08T02:46:05.991Z,38.78
2022-12-08T02:47:13.883Z,48.55
2022-12-08T02:48:17.365Z,46.78
2022-12-08T02:49:19.971Z,46.33
2022-12-08T02:50:25.372Z,49.67
2022-12-08T02:51:27.719Z,45.72
2022-12-08T02:52:30.068Z,44.05
2022-12-08T02:53:37.422Z,48.20
2022-12-08T02:54:43.149Z,48.20
2022-12-08T02:56:02.196Z,45.03
2022-12-08T02:57:34.467Z,44.28
2022-12-08T02:59:15.671Z,42.90
2022-12-08T03:00:25.046Z,45.13
2022-12-08T03:01:39.590Z,45.38
2022-12-08T03:02:54.219Z,42.35
2022-12-08T03:04:10.485Z,43.45
2022-12-08T03:05:18.753Z,45.53
2022-12-08T03:06:59.740Z,43.80
2022-12-08T03:08:02.463Z,43.50
2022-12-08T03:09:29.247Z,43.88
2022-12-08T03:10:37.735Z,44.08
2022-12-08T03:11:50.085Z,42.15
2022-12-08T03:13:15.957Z,48.20
2022-12-08T03:14:19.658Z,49.22
2022-12-08T03:15:22.784Z,46.75
2022-12-08T03:16:28.642Z,46.30
2022-12-08T03:17:32.366Z,46.95
2022-12-08T03:18:38.319Z,46.55
2022-12-08T03:19:44.027Z,45.50
2022-12-08T03:20:48.249Z,45.60
2022-12-08T03:21:53.826Z,42.05
2022-12-08T03:23:00.293Z,47.08
2022-12-08T03:24:06.602Z,44.25
2022-12-08T03:25:13.615Z,47.53
2022-12-08T03:26:23.028Z,43.75
2022-12-08T03:27:28.267Z,48.38
2022-12-08T03:28:30.814Z,54.17
2022-12-08T03:29:34.114Z,48.50
2022-12-08T03:30:40.021Z,49.00
2022-12-08T03:31:50.345Z,47.95
2022-12-08T03:32:59.556Z,41.92
2022-12-08T03:34:04.869Z,49.10
2022-12-08T03:35:12.759Z,51.03
2022-12-08T03:36:15.424Z,48.28
2022-12-08T03:37:21.413Z,45.55
2022-12-08T03:38:24.930Z,46.17
2022-12-08T03:39:27.122Z,48.42
2022-12-08T03:40:29.520Z,47.47
2022-12-08T03:41:31.909Z,45.45
2022-12-08T03:42:34.199Z,49.20
2022-12-08T03:43:36.877Z,48.33
2022-12-08T03:44:39.297Z,45.97
2022-12-08T03:45:41.582Z,42.47
2022-12-08T03:46:44.026Z,44.55
2022-12-08T03:47:46.601Z,45.72
2022-12-08T03:48:49.151Z,48.40
2022-12-08T03:49:51.683Z,47.08
2022-12-08T03:50:54.129Z,50.10
2022-12-08T03:51:56.759Z,48.33
2022-12-08T03:52:59.085Z,48.53
2022-12-08T03:54:01.431Z,45.55
2022-12-08T03:55:04.012Z,52.13
2022-12-08T03:56:16.351Z,44.88
2022-12-08T03:57:18.763Z,40.72
2022-12-08T03:58:21.063Z,46.00
2022-12-08T03:59:23.514Z,45.53
2022-12-08T04:00:26.190Z,47.00
2022-12-08T04:01:28.690Z,45.25
2022-12-08T04:02:31.240Z,47.90
2022-12-08T04:03:33.672Z,43.83
2022-12-08T04:04:35.969Z,44.03
2022-12-08T04:05:38.580Z,47.40
2022-12-08T04:06:40.978Z,48.80
2022-12-08T04:07:43.777Z,47.30
2022-12-08T04:08:46.360Z,42.53
2022-12-08T04:09:48.808Z,47.13
2022-12-08T04:10:51.248Z,48.50
2022-12-08T04:11:54.189Z,42.90
2022-12-08T04:12:57.522Z,41.35
2022-12-08T04:13:59.972Z,42.70
2022-12-08T04:15:02.276Z,44.40
2022-12-08T04:16:06.465Z,43.58
2022-12-08T04:17:13.575Z,45.22
2022-12-08T04:18:16.220Z,41.83
2022-12-08T04:19:18.550Z,39.38
2022-12-08T04:20:21.041Z,41.80
2022-12-08T04:21:23.596Z,46.47
2022-12-08T04:22:26.023Z,48.90
2022-12-08T04:23:28.545Z,46.30
2022-12-08T04:24:32.185Z,47.75
2022-12-08T04:25:35.391Z,45.13
2022-12-08T04:26:37.721Z,51.30
2022-12-08T04:27:40.101Z,53.63
2022-12-08T04:28:42.687Z,53.63
2022-12-08T04:29:45.208Z,42.92
2022-12-08T04:30:49.032Z,50.63
2022-12-08T04:31:51.400Z,45.50
2022-12-08T04:32:54.173Z,46.97
2022-12-08T04:33:56.513Z,44.50
2022-12-08T04:34:59.035Z,49.33
2022-12-08T04:36:03.579Z,43.85
2022-12-08T04:38:08.456Z,42.78
2022-12-08T04:39:10.904Z,45.10
2022-12-08T04:40:14.883Z,39.40
2022-12-08T04:41:17.245Z,43.95
2022-12-08T04:42:19.583Z,43.03
2022-12-08T04:43:21.882Z,48.65
2022-12-08T04:44:24.159Z,46.17
2022-12-08T04:45:26.563Z,46.70
2022-12-08T04:46:29.258Z,45.20
2022-12-08T04:47:32.958Z,43.67
2022-12-08T04:48:38.107Z,42.83
2022-12-08T04:49:40.421Z,47.83
2022-12-08T04:50:44.518Z,52.67
2022-12-08T04:51:46.947Z,51.50
2022-12-08T04:52:49.362Z,47.65
2022-12-08T04:53:51.686Z,53.55
2022-12-08T04:54:54.094Z,54.33
2022-12-08T04:55:56.533Z,56.55
2022-12-08T04:56:59.360Z,53.08
2022-12-08T04:58:01.904Z,56.03
2022-12-08T04:59:07.353Z,51.28
2022-12-08T05:00:11.040Z,53.35
2022-12-08T05:01:16.392Z,53.88
2022-12-08T05:02:19.748Z,57.00
2022-12-08T05:03:28.298Z,59.13
2022-12-08T05:04:31.510Z,60.03
2022-12-08T05:05:34.012Z,65.82
2022-12-08T05:06:36.512Z,66.75
2022-12-08T05:07:39.103Z,71.57
2022-12-08T05:08:42.697Z,70.13
2022-12-08T05:09:45.094Z,61.53
2022-12-08T05:10:47.425Z,68.47
2022-12-08T05:11:49.864Z,63.20
2022-12-08T05:12:52.306Z,62.40
2022-12-08T05:13:54.887Z,56.42
2022-12-08T05:15:05.005Z,56.13
2022-12-08T05:16:11.449Z,51.85
2022-12-08T05:17:17.130Z,55.08
2022-12-08T05:18:19.747Z,51.45
2022-12-08T05:19:22.606Z,46.85
2022-12-08T05:20:25.366Z,50.38
2022-12-08T05:21:30.593Z,55.80
2022-12-08T05:22:35.715Z,56.10
2022-12-08T05:25:00.515Z,56.72
2022-12-08T05:26:02.790Z,58.80
2022-12-08T05:27:05.776Z,57.53
2022-12-08T05:28:39.570Z,51.65
2022-12-08T05:29:30.684Z,45.05
2022-12-08T05:30:33.132Z,43.25
2022-12-08T05:31:35.704Z,44.15
2022-12-08T05:32:43.050Z,45.95
2022-12-08T05:33:45.915Z,44.60
2022-12-08T05:34:48.469Z,38.97
2022-12-08T05:35:51.042Z,42.80
2022-12-08T05:36:56.173Z,47.08
2022-12-08T05:38:05.598Z,48.95
2022-12-08T05:39:08.211Z,40.33
2022-12-08T05:40:13.126Z,49.15
2022-12-08T05:41:19.705Z,48.35
2022-12-08T05:42:25.288Z,43.88
2022-12-08T05:43:27.878Z,46.28
2022-12-08T05:44:30.343Z,46.90
2022-12-08T05:45:33.030Z,45.47
2022-12-08T05:46:35.783Z,44.30
2022-12-08T05:47:38.460Z,42.17
2022-12-08T05:48:41.755Z,42.75
2022-12-08T05:49:47.201Z,41.35
2022-12-08T05:50:51.277Z,46.40
2022-12-08T05:51:53.680Z,43.25
2022-12-08T05:52:56.002Z,39.67
2022-12-08T05:54:00.727Z,39.72
2022-12-08T05:55:03.157Z,43.25
2022-12-08T05:56:05.688Z,45.35
2022-12-08T05:57:08.415Z,41.83
2022-12-08T05:58:19.673Z,39.30
2022-12-08T05:59:21.999Z,44.92
2022-12-08T06:00:24.313Z,41.05
2022-12-08T06:01:30.406Z,45.88
2022-12-08T06:02:33.718Z,44.15
2022-12-08T06:03:36.214Z,42.05
2022-12-08T06:04:38.595Z,42.53
2022-12-08T06:05:56.250Z,47.78
2022-12-08T06:06:59.828Z,36.95
2022-12-08T06:08:05.824Z,44.35
2022-12-08T06:09:09.357Z,49.53
2022-12-08T06:10:12.282Z,45.30
2022-12-08T06:11:24.116Z,43.20
2022-12-08T06:12:29.623Z,42.40
2022-12-08T06:13:31.950Z,40.78
2022-12-08T06:14:34.490Z,44.05
2022-12-08T06:15:38.221Z,40.90
2022-12-08T06:16:40.637Z,43.22
2022-12-08T06:17:43.397Z,47.75
2022-12-08T06:18:46.151Z,46.72
2022-12-08T06:19:48.558Z,58.30
2022-12-08T06:20:50.869Z,57.70
2022-12-08T06:21:53.394Z,61.40
2022-12-08T06:22:55.965Z,58.10
2022-12-08T06:23:58.372Z,63.05
2022-12-08T06:25:00.708Z,71.05
2022-12-08T06:26:05.749Z,72.70
2022-12-08T06:27:08.057Z,66.25
2022-12-08T06:28:10.377Z,67.85
2022-12-08T06:29:13.498Z,70.80
2022-12-08T06:30:16.264Z,66.40
2022-12-08T06:31:21.663Z,66.20
2022-12-08T06:32:27.620Z,64.90
2022-12-08T06:33:30.084Z,64.53
2022-12-08T06:34:32.378Z,67.22
2022-12-08T06:35:34.755Z,70.18
2022-12-08T06:36:37.310Z,74.53
2022-12-08T06:37:39.836Z,73.57
2022-12-08T06:38:43.818Z,68.15
2022-12-08T06:39:46.367Z,66.85
2022-12-08T06:40:55.994Z,68.80
2022-12-08T06:42:16.726Z,65.90
2022-12-08T06:43:19.363Z,60.42
2022-12-08T06:44:21.705Z,60.33
2022-12-08T06:45:24.076Z,58.30
2022-12-08T06:46:26.462Z,64.88
2022-12-08T06:47:28.898Z,58.30
2022-12-08T06:48:31.316Z,58.38
2022-12-08T06:49:33.718Z,65.72
2022-12-08T06:50:36.184Z,61.35
2022-12-08T06:51:38.502Z,62.90
2022-12-08T06:52:51.726Z,69.25
2022-12-08T06:53:58.190Z,68.40
2022-12-08T06:55:00.482Z,62.42
2022-12-08T06:56:04.023Z,69.80
2022-12-08T06:57:06.794Z,72.95
2022-12-08T06:58:09.200Z,78.85
2022-12-08T06:59:11.652Z,79.53
2022-12-08T07:00:15.105Z,82.07
2022-12-08T07:01:17.775Z,91.93
2022-12-08T07:02:20.351Z,81.95
2022-12-08T07:03:22.751Z,84.55
2022-12-08T07:04:26.221Z,80.80
2022-12-08T07:05:28.603Z,80.85
2022-12-08T07:06:30.921Z,86.90
2022-12-08T07:07:33.663Z,89.55
2022-12-08T07:08:36.425Z,88.53
2022-12-08T07:09:39.020Z,84.55
2022-12-08T07:10:41.976Z,71.13
2022-12-08T07:11:44.414Z,82.57
2022-12-08T07:12:46.833Z,73.10
2022-12-08T07:13:49.119Z,76.70
2022-12-08T07:14:51.548Z,73.68
2022-12-08T07:15:53.901Z,71.50
2022-12-08T07:16:56.498Z,60.13
2022-12-08T07:18:00.371Z,63.80
2022-12-08T07:19:03.037Z,61.40
2022-12-08T07:20:06.498Z,63.42
2022-12-08T07:21:11.988Z,69.70
2022-12-08T07:22:14.462Z,59.75
2022-12-08T07:23:16.944Z,62.88
2022-12-08T07:24:19.295Z,53.85
2022-12-08T07:25:22.179Z,61.60
2022-12-08T07:26:24.747Z,56.78
2022-12-08T07:27:27.182Z,60.63
2022-12-08T07:28:33.645Z,55.50
2022-12-08T07:29:36.132Z,60.58
2022-12-08T07:30:39.722Z,53.17
2022-12-08T07:31:42.592Z,56.05
2022-12-08T07:32:45.560Z,57.75
2022-12-08T07:33:48.886Z,59.78
2022-12-08T07:34:51.157Z,62.55
2022-12-08T07:35:58.782Z,60.17
2022-12-08T07:37:02.105Z,62.17
2022-12-08T07:38:04.722Z,58.90
2022-12-08T07:39:07.152Z,62.22
2022-12-08T07:40:10.116Z,67.68
2022-12-08T07:41:14.745Z,67.88
2022-12-08T07:42:17.548Z,64.70
2022-12-08T07:43:23.066Z,70.72
2022-12-08T07:44:25.635Z,58.95
2022-12-08T07:45:31.479Z,57.75
2022-12-08T07:46:34.663Z,62.17
2022-12-08T07:47:37.537Z,61.25
2022-12-08T07:48:39.986Z,65.15
2022-12-08T07:49:42.606Z,63.58
2022-12-08T07:50:45.043Z,61.95
2022-12-08T07:51:47.453Z,55.47
2022-12-08T07:52:49.735Z,59.97
2022-12-08T07:53:54.446Z,60.85
2022-12-08T07:54:57.345Z,57.40
2022-12-08T07:56:00.053Z,54.92
2022-12-08T07:57:03.875Z,55.53
2022-12-08T07:58:06.731Z,58.50
2022-12-08T07:59:09.173Z,60.70
2022-12-08T08:00:12.142Z,66.93
2022-12-08T08:01:24.259Z,67.97
2022-12-08T08:02:26.932Z,70.35
2022-12-08T08:03:29.399Z,80.78
2022-12-08T08:04:34.939Z,77.38
2022-12-08T08:05:37.738Z,71.47
2022-12-08T08:06:40.262Z,76.75
2022-12-08T08:07:43.846Z,80.75
2022-12-08T08:08:46.401Z,77.68
2022-12-08T08:09:51.535Z,74.32
2022-12-08T08:10:53.759Z,66.13
2022-12-08T08:12:28.909Z,68.18
2022-12-08T08:13:18.676Z,61.33
2022-12-08T08:14:21.102Z,60.33
2022-12-08T08:15:23.439Z,52.33
2022-12-08T08:16:25.936Z,56.58
2022-12-08T08:17:29.420Z,55.00
2022-12-08T08:18:33.066Z,55.55
2022-12-08T08:19:35.434Z,57.15
2022-12-08T08:20:37.766Z,54.90
2022-12-08T08:21:47.680Z,54.05
2022-12-08T08:22:50.935Z,51.67
2022-12-08T08:23:53.338Z,56.10
2022-12-08T08:24:55.594Z,59.92
2022-12-08T08:26:03.074Z,58.08
2022-12-08T08:27:05.674Z,61.97
2022-12-08T08:28:08.745Z,60.70
2022-12-08T08:29:11.192Z,57.72
2022-12-08T08:30:19.942Z,64.18
2022-12-08T08:31:27.263Z,61.60
2022-12-08T08:32:34.016Z,70.00
2022-12-08T08:33:36.268Z,63.30
2022-12-08T08:34:38.917Z,64.80
2022-12-08T08:35:42.549Z,63.03
2022-12-08T08:36:46.106Z,62.45
2022-12-08T08:37:49.769Z,62.25
2022-12-08T08:38:52.679Z,62.90
2022-12-08T08:39:55.002Z,64.22
2022-12-08T08:40:57.832Z,61.78
2022-12-08T08:42:00.290Z,63.00
2022-12-08T08:43:04.740Z,64.05
2022-12-08T08:44:07.854Z,64.60
2022-12-08T08:45:10.828Z,65.20
2022-12-08T08:46:13.117Z,65.47
2022-12-08T08:47:15.847Z,58.63
2022-12-08T08:48:18.171Z,60.75
2022-12-08T08:49:21.503Z,58.60
2022-12-08T08:50:23.925Z,63.22
2022-12-08T08:51:27.813Z,60.70
2022-12-08T08:52:30.329Z,60.60
2022-12-08T08:53:32.663Z,61.90
2022-12-08T08:54:35.791Z,72.22
2022-12-08T08:55:39.749Z,69.63
2022-12-08T08:56:42.258Z,83.82
2022-12-08T08:57:44.569Z,77.65
2022-12-08T08:58:49.031Z,81.13
2022-12-08T08:59:51.936Z,81.10
2022-12-08T09:00:54.285Z,66.63
2022-12-08T09:01:59.124Z,70.30
2022-12-08T09:03:01.799Z,64.50
2022-12-08T09:04:04.263Z,59.60
2022-12-08T09:05:07.893Z,60.47
2022-12-08T09:06:10.455Z,54.88
2022-12-08T09:07:13.656Z,53.88
2022-12-08T09:08:16.381Z,54.17
2022-12-08T09:09:18.850Z,57.25
2022-12-08T09:10:21.387Z,55.75
2022-12-08T09:11:24.255Z,49.95
2022-12-08T09:12:26.734Z,53.53
2022-12-08T09:13:29.098Z,51.70
2022-12-08T09:14:31.571Z,53.97
2022-12-08T09:15:34.703Z,49.75
2022-12-08T09:16:41.932Z,53.85
2022-12-08T09:17:44.837Z,50.17
2022-12-08T09:18:49.794Z,49.30
2022-12-08T09:19:52.160Z,50.70
2022-12-08T09:20:54.830Z,47.28
2022-12-08T09:21:57.731Z,48.38
2022-12-08T09:23:03.144Z,53.78
2022-12-08T09:24:07.054Z,55.38
2022-12-08T09:25:09.850Z,54.38
2022-12-08T09:26:13.043Z,54.80
2022-12-08T09:27:15.328Z,46.47
2022-12-08T09:28:17.856Z,48.20
2022-12-08T09:29:20.420Z,44.00
2022-12-08T09:30:24.128Z,51.22
2022-12-08T09:31:27.042Z,51.70
2022-12-08T09:32:29.391Z,46.72
2022-12-08T09:33:34.779Z,43.50
2022-12-08T09:34:37.472Z,45.58
2022-12-08T09:35:39.883Z,51.10
2022-12-08T09:36:42.246Z,49.67
2022-12-08T09:37:44.872Z,47.92
2022-12-08T09:38:47.158Z,43.83
2022-12-08T09:39:49.571Z,45.75
2022-12-08T09:40:53.969Z,46.90
2022-12-08T09:42:01.865Z,47.50
2022-12-08T09:43:18.808Z,50.50
2022-12-08T09:44:39.582Z,57.78
2022-12-08T09:45:42.154Z,60.45
2022-12-08T09:46:47.291Z,57.15
2022-12-08T09:48:22.387Z,55.97
2022-12-08T09:49:46.034Z,53.42
2022-12-08T09:50:58.194Z,47.05
2022-12-08T09:52:01.262Z,50.75
2022-12-08T09:53:12.590Z,46.72
2022-12-08T09:54:21.495Z,71.85
2022-12-08T09:55:43.433Z,70.40
2022-12-08T09:56:46.170Z,57.22
2022-12-08T09:57:56.955Z,61.03
2022-12-08T09:59:27.412Z,61.38
2022-12-08T10:00:30.599Z,73.85
2022-12-08T10:01:38.512Z,109.22
2022-12-08T10:02:40.990Z,100.53
2022-12-08T10:03:43.598Z,81.93
2022-12-08T10:04:46.044Z,77.22
2022-12-08T10:06:11.584Z,73.80
2022-12-08T10:07:45.418Z,62.17
2022-12-08T10:09:22.708Z,49.63
2022-12-08T10:10:47.346Z,59.42
2022-12-08T10:11:57.859Z,50.05
2022-12-08T10:13:12.004Z,58.22
2022-12-08T10:14:47.618Z,54.15
2022-12-08T10:16:23.029Z,60.97
2022-12-08T10:17:31.041Z,56.47
2022-12-08T10:18:34.855Z,52.03
2022-12-08T10:19:40.771Z,56.40
2022-12-08T10:20:46.414Z,55.75
2022-12-08T10:21:50.524Z,54.95
2022-12-08T10:23:18.701Z,53.97
2022-12-08T10:24:28.240Z,47.63
2022-12-08T10:25:39.575Z,55.38
2022-12-08T10:26:42.071Z,56.05
2022-12-08T10:27:47.125Z,49.63
2022-12-08T10:28:51.712Z,47.65
2022-12-08T10:29:54.112Z,46.05
2022-12-08T10:30:57.452Z,48.13
2022-12-08T10:32:00.625Z,54.70
2022-12-08T10:33:03.867Z,52.58
2022-12-08T10:34:17.644Z,59.65
2022-12-08T10:35:22.511Z,56.42
2022-12-08T10:36:56.281Z,58.30
2022-12-08T10:38:00.665Z,60.40
2022-12-08T10:40:18.632Z,47.53
2022-12-08T10:41:21.219Z,51.85
2022-12-08T10:42:23.592Z,54.15
2022-12-08T10:43:27.398Z,47.63
2022-12-08T10:44:29.959Z,46.53
2022-12-08T10:45:44.126Z,52.03
2022-12-08T10:46:46.603Z,64.30
2022-12-08T10:48:10.061Z,55.50
2022-12-08T10:49:13.505Z,51.13
2022-12-08T10:50:15.828Z,59.45
2022-12-08T10:51:34.873Z,49.17
2022-12-08T10:52:41.169Z,56.63
2022-12-08T10:53:46.882Z,49.60
2022-12-08T10:54:54.675Z,50.13
2022-12-08T10:56:03.251Z,49.17
2022-12-08T10:57:05.797Z,56.50
2022-12-08T10:58:28.136Z,46.33
2022-12-08T10:59:33.828Z,50.13
2022-12-08T11:00:39.571Z,45.97
2022-12-08T11:01:45.644Z,48.72
2022-12-08T11:02:59.680Z,45.10
2022-12-08T11:04:03.910Z,56.50
2022-12-08T11:05:06.771Z,48.05
2022-12-08T11:06:15.043Z,40.55
2022-12-08T11:07:23.335Z,38.47
2022-12-08T11:08:28.391Z,34.67
2022-12-08T11:09:51.083Z,37.67
2022-12-08T11:10:53.626Z,35.03
2022-12-08T11:12:14.224Z,31.20
2022-12-08T11:13:26.527Z,32.00
2022-12-08T11:14:30.481Z,35.40
2022-12-08T11:15:36.766Z,39.70
2022-12-08T11:16:42.443Z,38.88
2022-12-08T11:17:52.207Z,35.92
2022-12-08T11:18:58.934Z,41.65
2022-12-08T11:20:11.758Z,36.42
2022-12-08T11:21:19.849Z,44.15
2022-12-08T11:22:24.685Z,42.40
2022-12-08T11:23:29.120Z,38.75
2022-12-08T11:24:37.685Z,40.20
2022-12-08T11:25:40.625Z,39.05
2022-12-08T11:26:52.207Z,37.45
2022-12-08T11:28:00.031Z,35.58
2022-12-08T11:29:02.697Z,37.08
2022-12-08T11:30:15.819Z,37.60
2022-12-08T11:31:44.235Z,37.03
2022-12-08T11:32:55.776Z,39.03
2022-12-08T11:33:58.821Z,37.38
2022-12-08T11:35:06.802Z,37.33
2022-12-08T11:36:14.756Z,38.20
2022-12-08T11:37:27.485Z,34.40
2022-12-08T11:38:34.195Z,37.70
2022-12-08T11:39:43.811Z,39.60
2022-12-08T11:40:46.356Z,39.60
2022-12-08T11:41:49.578Z,35.08
2022-12-08T11:43:06.518Z,37.65
2022-12-08T11:45:35.441Z,38.40
2022-12-08T11:47:01.579Z,40.63
2022-12-08T11:48:07.605Z,42.92
2022-12-08T11:49:14.282Z,41.25
2022-12-08T11:50:39.384Z,48.13
2022-12-08T11:51:51.422Z,49.60
2022-12-08T11:52:53.895Z,44.63
2022-12-08T11:54:21.243Z,41.10
2022-12-08T11:55:40.634Z,40.33
2022-12-08T11:56:47.090Z,40.30
2022-12-08T11:57:51.931Z,42.08
2022-12-08T11:58:58.874Z,36.17
2022-12-08T12:00:02.308Z,39.28
2022-12-08T12:01:24.171Z,36.88
2022-12-08T12:02:32.338Z,41.08
2022-12-08T12:03:40.841Z,42.55
2022-12-08T12:04:43.474Z,41.15
2022-12-08T12:06:18.326Z,44.20
2022-12-08T12:07:46.973Z,39.72
2022-12-08T12:09:01.411Z,41.28
2022-12-08T12:10:28.503Z,39.80
2022-12-08T12:12:04.124Z,40.85
2022-12-08T12:13:23.416Z,41.90
2022-12-08T12:14:41.785Z,40.42
2022-12-08T12:16:21.682Z,45.67
2022-12-08T12:17:33.063Z,43.03
2022-12-08T12:18:45.590Z,43.63
2022-12-08T12:19:49.411Z,46.83
2022-12-08T12:21:08.184Z,46.70
2022-12-08T12:22:17.868Z,48.75
2022-12-08T12:24:35.947Z,44.88
2022-12-08T12:25:46.000Z,43.75
2022-12-08T12:27:17.760Z,42.05
2022-12-08T12:28:20.309Z,44.78
2022-12-08T12:29:26.692Z,42.53
2022-12-08T12:30:48.971Z,45.40
2022-12-08T12:31:59.515Z,46.90
2022-12-08T12:33:02.824Z,46.50
2022-12-08T12:34:14.887Z,46.03
2022-12-08T12:35:40.917Z,41.10
2022-12-08T12:36:57.903Z,43.58
2022-12-08T12:38:33.896Z,44.90
2022-12-08T12:40:01.614Z,42.47
2022-12-08T12:41:07.053Z,43.20
2022-12-08T12:42:37.783Z,49.35
2022-12-08T12:43:40.392Z,45.20
2022-12-08T12:44:43.621Z,45.28
2022-12-08T12:45:46.763Z,41.83
2022-12-08T12:46:49.571Z,42.70
2022-12-08T12:48:14.644Z,47.25
2022-12-08T12:49:43.971Z,50.20
2022-12-08T12:50:48.645Z,48.55
2022-12-08T12:51:55.671Z,51.70
2022-12-08T12:53:01.179Z,47.70
2022-12-08T12:54:28.692Z,47.50
2022-12-08T12:55:46.759Z,51.70
2022-12-08T12:56:51.168Z,46.72
2022-12-08T12:57:56.757Z,43.35
2022-12-08T12:59:35.275Z,43.45
2022-12-08T13:00:37.871Z,43.85
2022-12-08T13:01:54.802Z,44.53
2022-12-08T13:02:59.119Z,49.30
2022-12-08T13:04:09.183Z,44.45
2022-12-08T13:05:26.898Z,42.65
2022-12-08T13:06:42.515Z,50.47
2022-12-08T13:07:55.695Z,47.08
2022-12-08T13:08:58.852Z,46.22
2022-12-08T13:10:18.241Z,47.60
2022-12-08T13:11:21.808Z,44.33
2022-12-08T13:12:25.345Z,47.05
2022-12-08T13:13:29.107Z,51.45
2022-12-08T13:14:35.689Z,62.13
2022-12-08T13:15:48.468Z,87.53
2022-12-08T13:16:54.949Z,112.13
2022-12-08T13:17:58.229Z,109.72
2022-12-08T13:19:04.066Z,103.35
2022-12-08T13:20:17.553Z,88.70
2022-12-08T13:21:23.167Z,113.28
2022-12-08T13:22:53.763Z,164.88
2022-12-08T13:24:14.586Z,103.45
2022-12-08T13:25:44.883Z,90.35
2022-12-08T13:26:48.257Z,78.47
2022-12-08T13:27:55.157Z,57.97
2022-12-08T13:29:01.585Z,98.03
2022-12-08T13:30:42.796Z,77.15
2022-12-08T13:32:12.140Z,58.75
2022-12-08T13:33:33.914Z,57.47
2022-12-08T13:34:45.709Z,54.13
2022-12-08T13:36:03.875Z,52.05
2022-12-08T13:37:12.594Z,75.97
2022-12-08T13:38:21.432Z,91.78
2022-12-08T13:39:41.354Z,90.32
2022-12-08T13:40:44.909Z,64.18
2022-12-08T13:42:08.053Z,55.53
2022-12-08T13:45:18.491Z,54.17
2022-12-08T13:46:52.873Z,57.90
2022-12-08T13:47:34.693Z,55.63
2022-12-08T13:55:49.804Z,56.90
2022-12-08T13:57:36.989Z,58.60
2022-12-08T13:58:40.497Z,49.83
2022-12-08T13:59:46.336Z,48.45
2022-12-08T14:01:17.683Z,56.03
2022-12-08T14:02:40.834Z,64.07
2022-12-08T14:04:22.028Z,60.90
2022-12-08T14:05:19.494Z,62.65
2022-12-08T14:06:29.721Z,58.55
2022-12-08T14:07:33.879Z,58.78
2022-12-08T14:08:59.298Z,55.75
2022-12-08T14:10:00.246Z,49.03
2022-12-08T14:11:06.299Z,57.70
2022-12-08T14:12:28.292Z,62.47
2022-12-08T14:13:33.049Z,59.05
2022-12-08T14:15:02.435Z,74.80
2022-12-08T14:16:06.422Z,83.82
2022-12-08T14:17:17.637Z,118.45
2022-12-08T14:18:33.637Z,190.35
2022-12-08T14:19:36.146Z,139.65
2022-12-08T14:21:12.130Z,130.45
2022-12-08T14:22:13.111Z,134.77
2022-12-08T14:23:17.729Z,145.48
2022-12-08T14:24:22.261Z,97.55
2022-12-08T14:25:28.252Z,85.10
2022-12-08T14:26:35.590Z,66.15
2022-12-08T14:27:38.879Z,81.07
2022-12-08T14:28:44.749Z,72.63
2022-12-08T14:30:00.263Z,61.22
2022-12-08T14:31:03.887Z,57.20
2022-12-08T14:32:23.587Z,65.43
2022-12-08T14:33:27.538Z,64.63
2022-12-08T14:34:29.816Z,70.50
2022-12-08T14:35:37.899Z,66.07
2022-12-08T14:36:40.439Z,60.03
2022-12-08T14:37:46.569Z,65.00
2022-12-08T14:38:51.438Z,62.92
2022-12-08T14:39:59.625Z,54.63
2022-12-08T14:41:08.036Z,51.40
2022-12-08T14:42:23.329Z,56.47
2022-12-08T14:43:28.527Z,54.67
2022-12-08T14:44:33.220Z,49.72
2022-12-08T14:45:47.036Z,52.97